Time;durP1;ratioP1;P1;durP2;ratioP2;P2;SDS_P1;SDS_P2;PMS_P1;PMS_P2;Temp;Humidity;BMP_temperature;BMP_pressure;BME280_temperature;BME280_humidity;BME280_pressure;Samples;Min_cycle;Max_cycle;Signal;HPM_P1;HPM_P2
2022/04/02 00:01:43;;;;;;;2.75;1.20;;;2.00;60.00;;;;;;5060785;28;20036;-67
2022/04/02 00:04:09;;;;;;;3.45;1.42;;;2.00;60.20;;;;;;5063888;28;20044;-68
2022/04/02 00:06:38;;;;;;;13.23;1.65;;;2.00;60.60;;;;;;5059050;28;20119;-67
2022/04/02 00:09:04;;;;;;;4.05;1.42;;;2.00;60.70;;;;;;5060768;28;20063;-67
2022/04/02 00:11:30;;;;;;;3.00;1.15;;;2.00;60.40;;;;;;5060238;28;20538;-67
2022/04/02 00:13:58;;;;;;;1.85;1.23;;;1.90;61.00;;;;;;5058838;28;20036;-67
2022/04/02 00:16:24;;;;;;;2.85;1.63;;;1.90;61.40;;;;;;5061816;28;20032;-68
2022/04/02 00:18:50;;;;;;;4.60;1.70;;;1.80;61.80;;;;;;5062133;28;20028;-67
2022/04/02 00:21:17;;;;;;;3.30;1.33;;;1.80;62.00;;;;;;5054966;28;20025;-67
2022/04/02 00:23:46;;;;;;;1.73;1.15;;;1.70;62.30;;;;;;5060731;28;20090;-69
2022/04/02 00:26:20;;;;;;;4.00;1.50;;;1.70;62.60;;;;;;5057429;28;20043;-67
2022/04/02 00:28:48;;;;;;;3.00;1.20;;;1.70;62.80;;;;;;5060397;28;20115;-67
2022/04/02 00:31:15;;;;;;;2.88;1.45;;;1.60;62.60;;;;;;5059696;28;20024;-69
2022/04/02 00:33:43;;;;;;;1.70;1.23;;;1.60;63.30;;;;;;5062875;28;20116;-69
2022/04/02 00:36:10;;;;;;;2.38;1.23;;;1.50;63.40;;;;;;5037760;28;20455;-69
2022/04/02 00:38:37;;;;;;;2.72;1.73;;;1.50;63.10;;;;;;5056202;28;20025;-69
2022/04/02 00:41:04;;;;;;;2.25;1.45;;;1.50;63.60;;;;;;5041786;28;20025;-70
2022/04/02 00:43:36;;;;;;;4.35;1.52;;;1.40;64.20;;;;;;5041069;28;20060;-69
2022/04/02 00:46:06;;;;;;;4.55;1.48;;;1.40;64.30;;;;;;5058624;28;20767;-69
2022/04/02 00:48:32;;;;;;;3.40;1.42;;;1.40;64.70;;;;;;5043670;28;20582;-69
2022/04/02 00:51:01;;;;;;;2.03;1.17;;;1.30;65.00;;;;;;5042312;28;20033;-69
2022/04/02 00:53:35;;;;;;;8.20;1.70;;;1.30;64.90;;;;;;5062923;28;20029;-68
2022/04/02 00:56:02;;;;;;;4.47;1.30;;;1.20;65.30;;;;;;5037028;28;20070;-69
2022/04/02 00:58:28;;;;;;;5.30;1.40;;;1.20;65.60;;;;;;5057742;28;20519;-70
2022/04/02 01:00:55;;;;;;;8.60;1.77;;;1.20;65.70;;;;;;5042609;28;20059;-70
2022/04/02 01:03:23;;;;;;;4.15;1.70;;;1.20;66.00;;;;;;5060334;28;20028;-69
2022/04/02 01:05:51;;;;;;;3.70;1.50;;;1.10;65.70;;;;;;5041703;28;20143;-69
2022/04/02 01:08:20;;;;;;;3.63;1.25;;;1.10;66.40;;;;;;5042728;28;20028;-69
2022/04/02 01:10:48;;;;;;;3.38;1.30;;;1.10;66.30;;;;;;5058805;28;20032;-69
2022/04/02 01:13:16;;;;;;;2.08;1.50;;;1.10;66.70;;;;;;5037108;28;20051;-69
2022/04/02 01:15:42;;;;;;;3.90;1.80;;;1.10;67.10;;;;;;5036172;28;20041;-69
2022/04/02 01:18:11;;;;;;;3.22;1.27;;;1.00;67.20;;;;;;5041140;28;20512;-69
2022/04/02 01:20:38;;;;;;;2.33;1.30;;;0.90;67.60;;;;;;5050420;28;20056;-70
2022/04/02 01:23:04;;;;;;;3.83;1.73;;;0.90;67.80;;;;;;5040696;28;20032;-69
2022/04/02 01:25:37;;;;;;;5.50;1.50;;;0.80;68.20;;;;;;5039110;28;20196;-69
2022/04/02 01:28:12;;;;;;;2.15;1.30;;;0.80;68.30;;;;;;5049432;28;20036;-70
2022/04/02 01:30:38;;;;;;;3.90;1.73;;;0.80;68.90;;;;;;5061775;28;20042;-67
2022/04/02 01:33:03;;;;;;;2.47;1.20;;;0.80;69.00;;;;;;5049633;28;20451;-69
2022/04/02 01:35:31;;;;;;;4.47;1.50;;;0.80;69.10;;;;;;5042475;28;20082;-69
2022/04/02 01:38:07;;;;;;;3.05;1.52;;;0.70;69.10;;;;;;5040446;28;20055;-69
2022/04/02 01:40:33;;;;;;;2.50;1.55;;;0.70;69.40;;;;;;5039450;28;20400;-69
2022/04/02 01:43:00;;;;;;;4.65;1.20;;;0.70;69.50;;;;;;5044355;28;20215;-69
2022/04/02 01:45:26;;;;;;;3.88;1.27;;;0.70;69.70;;;;;;5043713;28;20039;-69
2022/04/02 01:47:56;;;;;;;4.53;1.58;;;0.70;70.00;;;;;;5043534;28;20116;-70
2022/04/02 01:50:35;;;;;;;3.25;1.63;;;0.70;70.10;;;;;;5042751;28;20039;-66
2022/04/02 01:53:02;;;;;;;4.47;1.48;;;0.60;70.40;;;;;;5042283;28;20024;-69
2022/04/02 01:55:27;;;;;;;4.40;1.63;;;0.60;70.40;;;;;;5054520;28;20033;-69
2022/04/02 01:58:01;;;;;;;2.92;1.35;;;0.60;71.30;;;;;;5039032;28;20032;-67
2022/04/02 02:00:38;;;;;;;3.80;2.33;;;0.50;70.80;;;;;;5051942;28;20040;-69
2022/04/02 02:03:06;;;;;;;3.50;1.40;;;0.50;71.00;;;;;;5042963;28;20089;-69
2022/04/02 02:05:35;;;;;;;6.40;1.70;;;0.50;71.20;;;;;;5059513;28;20063;-69
2022/04/02 02:08:02;;;;;;;2.47;1.20;;;0.50;71.30;;;;;;5046292;28;20039;-69
2022/04/02 02:10:38;;;;;;;3.92;1.65;;;0.50;71.20;;;;;;5052243;28;20151;-69
2022/04/02 02:13:19;;;;;;;2.45;1.50;;;0.50;71.40;;;;;;5041510;28;20025;-69
2022/04/02 02:15:47;;;;;;;3.20;1.60;;;0.50;71.50;;;;;;5044732;28;20116;-69
2022/04/02 02:18:13;;;;;;;2.75;1.58;;;0.50;71.30;;;;;;5029922;28;20450;-69
2022/04/02 02:20:43;;;;;;;4.85;1.05;;;0.50;71.40;;;;;;5045676;28;20029;-69
2022/04/02 02:23:09;;;;;;;3.30;1.35;;;0.60;71.40;;;;;;5041989;28;20031;-69
2022/04/02 02:25:35;;;;;;;4.78;1.95;;;0.60;71.50;;;;;;5060835;28;20032;-66
2022/04/02 02:28:01;;;;;;;3.67;1.80;;;0.70;71.50;;;;;;5043097;28;20451;-69
2022/04/02 02:30:28;;;;;;;2.60;1.42;;;0.70;71.60;;;;;;5057624;28;20071;-69
2022/04/02 02:35:49;;;;;;;5.78;1.38;;;0.80;71.40;;;;;;5041285;28;20147;-69
2022/04/02 02:38:16;;;;;;;4.85;1.55;;;0.80;71.50;;;;;;5042959;28;20029;-69
2022/04/02 02:40:51;;;;;;;2.67;1.60;;;0.90;71.70;;;;;;5049206;28;20085;-69
2022/04/02 02:43:24;;;;;;;4.70;1.10;;;1.00;71.60;;;;;;5040881;28;20456;-69
2022/04/02 02:45:52;;;;;;;3.03;1.48;;;1.00;71.70;;;;;;5041730;28;20037;-69
2022/04/02 02:48:18;;;;;;;4.13;1.30;;;1.00;71.70;;;;;;5057255;28;20033;-69
2022/04/02 02:50:49;;;;;;;2.28;1.20;;;1.10;71.40;;;;;;5041186;28;20129;-69
2022/04/02 02:53:17;;;;;;;4.43;1.50;;;1.10;71.30;;;;;;5057315;28;20143;-69
2022/04/02 02:55:44;;;;;;;7.68;1.67;;;1.10;71.40;;;;;;5041944;28;20093;-69
2022/04/02 02:58:10;;;;;;;2.58;1.23;;;1.10;71.40;;;;;;5039697;28;20029;-69
2022/04/02 03:00:40;;;;;;;4.10;1.63;;;1.10;71.60;;;;;;5039615;28;20036;-69
2022/04/02 03:03:10;;;;;;;1.73;1.15;;;1.10;71.80;;;;;;5059099;28;20028;-69
2022/04/02 03:05:36;;;;;;;2.05;1.15;;;1.10;71.80;;;;;;5042342;28;20028;-69
2022/04/02 03:08:08;;;;;;;1.52;1.17;;;1.20;72.00;;;;;;5040551;28;20049;-69
2022/04/02 03:10:45;;;;;;;5.05;1.52;;;1.10;71.90;;;;;;5041336;28;20036;-69
2022/04/02 03:13:17;;;;;;;2.13;1.20;;;1.10;72.10;;;;;;5055652;28;20044;-69
2022/04/02 03:15:43;;;;;;;2.28;1.35;;;1.10;72.20;;;;;;5056455;28;20036;-69
2022/04/02 03:18:10;;;;;;;2.90;1.48;;;1.10;72.40;;;;;;5038169;28;20078;-69
2022/04/02 03:20:43;;;;;;;2.17;1.50;;;1.10;72.40;;;;;;5046798;28;20035;-69
2022/04/02 03:23:13;;;;;;;1.85;1.25;;;1.10;72.70;;;;;;5042625;28;20025;-69
2022/04/02 03:25:39;;;;;;;3.72;1.25;;;1.00;72.70;;;;;;5040217;28;20149;-67
2022/04/02 03:28:06;;;;;;;5.30;1.33;;;0.90;73.00;;;;;;5052143;28;20611;-69
2022/04/02 03:30:32;;;;;;;3.60;1.38;;;0.90;72.80;;;;;;5041713;28;20704;-67
2022/04/02 03:33:00;;;;;;;4.70;1.05;;;1.00;73.60;;;;;;5055338;28;20036;-69
2022/04/02 03:35:26;;;;;;;2.75;1.65;;;0.90;73.10;;;;;;5054675;28;20120;-69
2022/04/02 03:37:53;;;;;;;2.42;1.13;;;0.90;73.30;;;;;;5045503;28;20043;-69
2022/04/02 03:40:24;;;;;;;2.15;1.20;;;0.90;73.40;;;;;;5054451;28;20029;-69
2022/04/02 03:42:52;;;;;;;3.92;1.40;;;0.90;73.80;;;;;;5038813;28;20684;-69
2022/04/02 03:45:22;;;;;;;1.40;1.30;;;0.90;73.90;;;;;;5033759;28;20461;-69
2022/04/02 03:47:52;;;;;;;3.70;1.35;;;0.80;73.80;;;;;;5037066;28;20074;-69
2022/04/02 03:50:18;;;;;;;1.60;1.00;;;0.80;74.20;;;;;;5035527;28;20477;-67
2022/04/02 03:52:49;;;;;;;1.75;1.30;;;0.80;74.50;;;;;;5036790;28;20597;-69
2022/04/02 03:55:20;;;;;;;1.50;1.00;;;0.80;74.40;;;;;;5043393;28;20043;-69
2022/04/02 03:57:49;;;;;;;3.38;1.17;;;0.80;74.20;;;;;;5041915;28;20054;-69
2022/04/02 04:00:19;;;;;;;1.50;1.23;;;0.80;74.50;;;;;;5041859;28;20040;-67
2022/04/02 04:02:52;;;;;;;2.72;1.60;;;0.80;74.10;;;;;;5053724;28;20037;-69
2022/04/02 04:05:25;;;;;;;3.47;1.15;;;0.80;74.30;;;;;;5045536;28;20044;-67
2022/04/02 04:07:52;;;;;;;5.18;1.20;;;0.90;74.50;;;;;;5047670;28;20042;-69
2022/04/02 04:10:19;;;;;;;2.83;1.33;;;0.90;74.40;;;;;;5041537;28;20119;-69
2022/04/02 04:12:48;;;;;;;1.67;1.10;;;0.90;74.10;;;;;;5048147;28;20415;-69
2022/04/02 04:15:16;;;;;;;4.10;1.40;;;1.00;74.30;;;;;;5054900;28;20032;-68
2022/04/02 04:17:43;;;;;;;1.45;1.17;;;1.00;74.50;;;;;;5038720;28;20028;-69
2022/04/02 04:20:11;;;;;;;1.20;0.98;;;1.10;74.60;;;;;;5037953;28;20424;-66
2022/04/02 04:22:38;;;;;;;2.42;1.40;;;1.10;75.00;;;;;;5039703;28;20028;-66
2022/04/02 04:25:09;;;;;;;3.55;1.42;;;1.10;74.30;;;;;;5037327;28;20036;-69
2022/04/02 04:27:36;;;;;;;5.18;2.08;;;1.20;74.40;;;;;;5038078;28;20058;-69
2022/04/02 04:30:04;;;;;;;2.25;1.20;;;1.20;74.30;;;;;;5040668;28;20562;-69
2022/04/02 04:32:30;;;;;;;1.77;1.20;;;1.20;74.10;;;;;;5044425;28;20056;-69
2022/04/02 04:34:55;;;;;;;2.42;1.45;;;1.30;73.80;;;;;;5056760;28;20041;-69
2022/04/02 04:37:21;;;;;;;1.80;1.33;;;1.30;73.90;;;;;;5056119;28;20468;-69
2022/04/02 04:39:47;;;;;;;1.52;1.38;;;1.30;73.80;;;;;;5040566;28;20040;-69
2022/04/02 04:42:15;;;;;;;3.70;1.30;;;1.40;74.00;;;;;;5040148;28;20035;-69
2022/04/02 04:44:42;;;;;;;3.58;1.15;;;1.40;74.30;;;;;;5044122;28;20029;-69
2022/04/02 04:47:10;;;;;;;4.13;1.10;;;1.50;73.70;;;;;;5038125;28;20021;-68
2022/04/02 04:49:43;;;;;;;3.08;1.50;;;1.50;73.40;;;;;;5042611;28;20035;-68
2022/04/02 04:52:09;;;;;;;1.60;1.02;;;1.60;73.60;;;;;;5041363;28;20036;-68
2022/04/02 04:54:36;;;;;;;3.10;1.25;;;1.60;73.50;;;;;;5042948;28;20118;-68
2022/04/02 04:57:11;;;;;;;3.75;1.20;;;1.70;73.10;;;;;;5043425;28;20027;-68
2022/04/02 04:59:38;;;;;;;4.05;1.35;;;1.70;73.00;;;;;;5047159;28;20032;-68
2022/04/02 05:02:06;;;;;;;4.50;1.27;;;1.80;73.00;;;;;;5055479;28;20064;-68
2022/04/02 05:04:34;;;;;;;4.20;1.50;;;1.90;72.50;;;;;;5028273;28;20847;-68
2022/04/02 05:07:01;;;;;;;3.03;1.35;;;2.00;72.40;;;;;;5041327;28;20055;-68
2022/04/02 05:09:27;;;;;;;2.88;1.35;;;2.00;72.00;;;;;;5045862;28;20043;-68
2022/04/02 05:11:58;;;;;;;1.20;1.10;;;2.10;72.00;;;;;;5042819;28;20115;-68
2022/04/02 05:14:24;;;;;;;1.83;1.10;;;2.10;72.00;;;;;;5058454;28;20024;-68
2022/04/02 05:16:54;;;;;;;5.15;1.23;;;2.20;71.70;;;;;;5043616;28;20064;-68
2022/04/02 05:19:25;;;;;;;3.33;1.52;;;2.30;71.40;;;;;;5042974;28;20492;-68
2022/04/02 05:21:53;;;;;;;4.95;1.10;;;2.40;71.80;;;;;;5050466;28;20043;-68
2022/04/02 05:24:19;;;;;;;5.38;1.33;;;2.50;70.90;;;;;;5040977;28;20025;-68
2022/04/02 05:26:49;;;;;;;2.20;1.13;;;2.60;70.70;;;;;;5042666;28;20036;-68
2022/04/02 05:29:17;;;;;;;4.20;1.20;;;2.70;70.40;;;;;;5041387;28;20123;-67
2022/04/02 05:31:43;;;;;;;1.83;1.08;;;2.80;70.00;;;;;;5060667;28;20020;-68
2022/04/02 05:34:09;;;;;;;1.30;0.95;;;2.90;69.70;;;;;;5057518;28;20656;-68
2022/04/02 05:36:38;;;;;;;2.60;1.20;;;3.00;69.30;;;;;;5042534;28;20036;-68
2022/04/02 05:39:04;;;;;;;3.63;1.30;;;3.10;69.10;;;;;;5055317;28;20023;-68
2022/04/02 05:41:30;;;;;;;1.90;1.15;;;3.20;68.70;;;;;;5058305;28;20037;-68
2022/04/02 05:43:56;;;;;;;2.05;1.20;;;3.30;68.10;;;;;;5061719;28;20024;-68
2022/04/02 05:46:22;;;;;;;1.92;1.15;;;3.40;67.70;;;;;;5040962;28;20055;-68
2022/04/02 05:48:48;;;;;;;2.15;1.23;;;3.50;66.80;;;;;;5058218;28;20500;-68
2022/04/02 05:51:14;;;;;;;3.42;1.35;;;3.60;66.90;;;;;;5058648;28;20541;-68
2022/04/02 05:53:40;;;;;;;2.60;1.17;;;3.70;66.30;;;;;;5058983;28;20033;-67
2022/04/02 05:56:06;;;;;;;2.55;1.40;;;3.90;65.90;;;;;;5058783;28;20032;-67
2022/04/02 05:58:32;;;;;;;1.42;1.08;;;4.10;65.00;;;;;;5059746;28;20454;-65
2022/04/02 06:00:58;;;;;;;2.10;1.30;;;4.20;64.50;;;;;;5058261;28;20036;-68
2022/04/02 06:03:24;;;;;;;1.08;0.95;;;4.40;64.20;;;;;;5060187;28;20039;-68
2022/04/02 06:05:50;;;;;;;3.40;1.60;;;4.60;63.50;;;;;;5057569;28;20500;-68
2022/04/02 06:08:16;;;;;;;4.85;1.40;;;4.70;62.80;;;;;;5057921;28;20025;-69
2022/04/02 06:10:44;;;;;;;5.03;1.58;;;4.80;61.90;;;;;;5058604;28;20210;-68
2022/04/02 06:13:11;;;;;;;3.20;1.15;;;4.90;61.60;;;;;;5058807;28;20039;-67
2022/04/02 06:15:37;;;;;;;3.13;1.30;;;5.00;61.80;;;;;;5042423;28;20067;-68
2022/04/02 06:18:03;;;;;;;4.93;1.75;;;5.20;60.50;;;;;;5058669;28;20033;-68
2022/04/02 06:20:29;;;;;;;4.80;1.90;;;5.30;59.90;;;;;;5057895;28;20036;-68
2022/04/02 06:22:55;;;;;;;2.88;1.35;;;5.50;59.60;;;;;;5057990;28;20032;-69
2022/04/02 06:25:21;;;;;;;3.83;1.42;;;5.60;59.10;;;;;;5056367;28;20040;-67
2022/04/02 06:27:48;;;;;;;3.05;1.30;;;5.70;58.60;;;;;;5058205;28;20687;-65
2022/04/02 06:30:17;;;;;;;4.70;1.17;;;5.70;58.60;;;;;;5060226;28;20119;-64
2022/04/02 06:32:43;;;;;;;2.85;1.60;;;5.80;57.90;;;;;;5059883;28;20577;-68
2022/04/02 06:35:11;;;;;;;5.35;1.33;;;5.90;57.90;;;;;;5041207;28;20028;-68
2022/04/02 06:37:40;;;;;;;3.67;1.38;;;6.00;57.90;;;;;;5036793;28;20029;-65
2022/04/02 06:40:09;;;;;;;5.43;1.70;;;6.10;56.90;;;;;;5056276;28;20094;-67
2022/04/02 06:42:36;;;;;;;2.25;1.17;;;6.20;57.70;;;;;;5035475;28;20044;-66
2022/04/02 06:45:05;;;;;;;2.00;1.20;;;6.30;57.20;;;;;;5036186;28;20032;-69
2022/04/02 06:47:33;;;;;;;5.40;1.23;;;6.40;56.60;;;;;;5059017;28;20043;-68
2022/04/02 06:50:01;;;;;;;3.47;1.48;;;6.50;56.10;;;;;;5058493;28;20492;-69
2022/04/02 06:52:27;;;;;;;3.95;1.48;;;6.80;56.10;;;;;;5056243;28;20036;-68
2022/04/02 06:54:53;;;;;;;4.63;1.95;;;7.10;55.50;;;;;;5059521;28;20458;-64
2022/04/02 06:57:22;;;;;;;4.88;1.13;;;7.20;54.60;;;;;;5057105;28;20041;-74
2022/04/02 06:59:48;;;;;;;6.70;1.50;;;7.20;54.30;;;;;;5059967;28;20047;-74
2022/04/02 07:02:16;;;;;;;4.75;1.45;;;7.20;54.30;;;;;;5055167;28;20099;-74
2022/04/02 07:04:42;;;;;;;4.10;1.40;;;7.20;54.20;;;;;;5050408;28;20480;-74
2022/04/02 07:07:09;;;;;;;2.40;1.10;;;7.20;54.30;;;;;;5058512;28;20399;-75
2022/04/02 07:09:35;;;;;;;4.72;1.50;;;7.20;53.80;;;;;;5060479;28;20032;-74
2022/04/02 07:12:02;;;;;;;4.78;1.38;;;7.10;54.10;;;;;;5055056;28;20102;-74
2022/04/02 07:14:28;;;;;;;8.57;1.77;;;7.20;53.30;;;;;;5057516;28;20052;-74
2022/04/02 07:16:54;;;;;;;3.08;1.17;;;7.40;53.40;;;;;;5055455;28;20033;-74
2022/04/02 07:19:22;;;;;;;2.35;1.05;;;7.70;52.80;;;;;;5057747;28;20039;-74
2022/04/02 07:21:53;;;;;;;5.57;1.60;;;7.80;51.90;;;;;;5057877;28;20036;-74
2022/04/02 07:24:21;;;;;;;4.30;1.70;;;7.60;51.50;;;;;;5053898;28;20086;-74
2022/04/02 07:26:49;;;;;;;2.80;1.10;;;7.60;52.30;;;;;;5038970;28;20028;-67
2022/04/02 07:29:16;;;;;;;3.92;1.60;;;7.70;52.40;;;;;;5056834;28;20433;-67
2022/04/02 07:31:44;;;;;;;2.38;1.40;;;7.60;52.60;;;;;;5055989;28;20047;-68
2022/04/02 07:34:10;;;;;;;9.88;2.65;;;7.70;51.90;;;;;;5054762;28;20040;-68
2022/04/02 07:37:08;;;;;;;3.40;1.67;;;7.80;52.00;;;;;;5056273;28;20032;-67
2022/04/02 07:40:06;;;;;;;1.55;0.90;;;7.90;52.20;;;;;;5057180;28;20043;-68
2022/04/02 07:43:02;;;;;;;2.25;1.50;;;8.00;52.00;;;;;;5050010;28;20052;-66
2022/04/02 07:45:35;;;;;;;2.97;1.00;;;8.10;51.40;;;;;;5057118;28;20036;-70
2022/04/02 07:48:06;;;;;;;3.53;1.40;;;8.10;51.20;;;;;;5052729;28;20048;-70
2022/04/02 07:50:34;;;;;;;4.53;1.55;;;7.80;51.50;;;;;;5056686;28;20445;-70
2022/04/02 07:53:01;;;;;;;3.40;1.00;;;7.80;51.20;;;;;;5054661;28;20048;-69
2022/04/02 07:55:30;;;;;;;2.97;1.23;;;7.90;51.30;;;;;;5040858;28;20039;-69
2022/04/02 07:58:02;;;;;;;2.58;1.30;;;8.00;51.10;;;;;;5055541;28;20040;-69
2022/04/02 08:00:30;;;;;;;3.53;1.35;;;8.20;50.70;;;;;;5055171;28;20044;-70
2022/04/02 08:03:00;;;;;;;6.20;1.00;;;8.10;49.90;;;;;;5057405;28;20041;-66
2022/04/02 08:05:25;;;;;;;1.77;1.10;;;8.40;49.50;;;;;;5057777;28;20111;-68
2022/04/02 08:07:57;;;;;;;2.95;1.00;;;9.00;48.10;;;;;;5036914;28;20032;-69
2022/04/02 08:10:31;;;;;;;3.28;1.27;;;9.60;46.90;;;;;;5040539;28;20036;-69
2022/04/02 08:13:00;;;;;;;2.35;1.33;;;10.00;45.60;;;;;;5053539;28;20063;-69
2022/04/02 08:15:26;;;;;;;2.00;1.10;;;9.70;45.70;;;;;;5058923;28;20050;-70
2022/04/02 08:18:05;;;;;;;2.72;0.90;;;9.40;46.00;;;;;;5042835;28;20024;-69
2022/04/02 08:20:32;;;;;;;3.45;1.30;;;9.20;45.40;;;;;;5058364;28;20027;-69
2022/04/02 08:22:57;;;;;;;2.45;0.95;;;9.20;46.10;;;;;;5061064;28;20973;-71
2022/04/02 08:25:23;;;;;;;3.55;1.00;;;9.30;46.00;;;;;;5063058;28;20043;-69
2022/04/02 08:27:58;;;;;;;1.73;1.10;;;9.30;45.30;;;;;;5058842;28;20136;-69
2022/04/02 08:30:28;;;;;;;2.95;1.08;;;9.40;44.90;;;;;;5060086;28;20123;-69
2022/04/02 08:32:59;;;;;;;2.92;1.17;;;10.00;43.50;;;;;;5056978;28;20961;-69
2022/04/02 08:35:51;;;;;;;1.45;1.10;;;10.00;42.70;;;;;;5058333;28;20089;-71
2022/04/02 08:38:40;;;;;;;1.95;1.15;;;10.50;42.90;;;;;;5049656;28;20055;-69
2022/04/02 08:41:17;;;;;;;2.95;1.13;;;11.00;41.70;;;;;;5017250;28;20045;-69
2022/04/02 08:44:01;;;;;;;4.13;1.05;;;11.20;39.30;;;;;;5062233;28;20106;-69
2022/04/02 08:46:48;;;;;;;5.57;1.25;;;12.10;37.50;;;;;;5054701;28;20032;-69
2022/04/02 08:49:36;;;;;;;2.40;0.90;;;14.40;34.30;;;;;;5058054;28;20037;-69
2022/04/02 08:52:14;;;;;;;1.55;0.80;;;16.60;29.90;;;;;;5056789;28;20653;-69
2022/04/02 08:55:01;;;;;;;3.42;1.00;;;18.10;28.90;;;;;;5058886;28;20087;-69
2022/04/02 08:57:51;;;;;;;2.03;0.73;;;17.90;28.20;;;;;;5060229;28;20031;-69
2022/04/02 09:00:23;;;;;;;2.60;1.15;;;17.20;28.90;;;;;;5015089;28;20040;-69
2022/04/02 09:03:01;;;;;;;3.13;1.15;;;15.60;29.90;;;;;;5061180;28;20049;-69
2022/04/02 09:05:39;;;;;;;5.18;1.13;;;14.10;32.50;;;;;;5058855;28;20033;-67
2022/04/02 09:08:32;;;;;;;2.08;1.10;;;13.10;34.20;;;;;;5059872;28;20046;-69
2022/04/02 09:11:13;;;;;;;2.25;0.70;;;12.50;34.40;;;;;;5059605;28;20032;-72
2022/04/02 09:14:16;;;;;;;1.92;0.90;;;12.40;34.70;;;;;;5061355;28;20060;-69
2022/04/02 09:16:42;;;;;;;3.08;1.38;;;13.20;34.90;;;;;;5055589;28;20040;-72
2022/04/02 09:19:30;;;;;;;2.00;1.17;;;15.50;32.30;;;;;;5058152;28;20029;-68
2022/04/02 09:22:13;;;;;;;1.50;0.95;;;18.70;28.70;;;;;;5059540;28;20163;-68
2022/04/02 09:24:56;;;;;;;3.10;1.50;;;20.70;25.40;;;;;;5059741;28;20108;-68
2022/04/02 09:28:00;;;;;;;3.15;0.80;;;22.70;23.70;;;;;;5035954;28;20505;-68
2022/04/02 09:30:54;;;;;;;1.73;0.95;;;22.50;22.70;;;;;;5060353;28;20511;-68
2022/04/02 09:33:32;;;;;;;4.55;1.10;;;20.50;23.90;;;;;;5058838;28;20024;-68
2022/04/02 09:36:16;;;;;;;3.03;1.00;;;19.50;25.10;;;;;;5056189;28;20039;-68
2022/04/02 09:39:00;;;;;;;2.92;0.77;;;18.80;25.60;;;;;;5031213;28;20043;-71
2022/04/02 09:41:36;;;;;;;3.40;1.02;;;17.70;26.40;;;;;;5056008;28;20500;-68
2022/04/02 09:44:29;;;;;;;2.28;0.80;;;17.30;27.60;;;;;;5058832;28;20675;-67
2022/04/02 09:47:23;;;;;;;3.20;1.00;;;18.00;26.90;;;;;;5057415;28;20072;-70
2022/04/02 09:50:09;;;;;;;0.85;0.70;;;17.60;26.40;;;;;;5036247;28;20045;-68
2022/04/02 09:53:00;;;;;;;0.95;0.80;;;17.70;26.20;;;;;;5053467;28;20033;-69
2022/04/02 09:55:39;;;;;;;2.97;1.20;;;18.20;25.40;;;;;;5058111;28;20086;-69
2022/04/02 09:58:23;;;;;;;2.00;1.02;;;18.50;26.20;;;;;;5056957;28;20127;-69
2022/04/02 10:01:00;;;;;;;1.73;1.00;;;18.40;26.50;;;;;;5053730;28;20140;-68
2022/04/02 10:03:52;;;;;;;3.55;0.80;;;17.60;27.30;;;;;;5056894;28;20139;-68
2022/04/02 10:06:20;;;;;;;3.85;1.40;;;16.90;27.70;;;;;;5039074;28;20122;-63
2022/04/02 10:09:10;;;;;;;1.88;0.98;;;16.10;29.20;;;;;;5038984;28;20039;-68
2022/04/02 10:11:51;;;;;;;2.03;0.90;;;15.00;29.70;;;;;;5038322;28;20039;-67
2022/04/02 10:14:21;;;;;;;1.25;0.90;;;14.10;31.20;;;;;;5057958;28;20465;-70
2022/04/02 10:16:53;;;;;;;2.40;0.95;;;13.60;31.10;;;;;;5059163;28;20746;-67
2022/04/02 10:19:35;;;;;;;1.27;0.90;;;13.20;31.40;;;;;;5047987;28;20182;-67
2022/04/02 10:22:11;;;;;;;1.40;1.10;;;12.70;31.90;;;;;;5056369;28;20496;-68
2022/04/02 10:24:53;;;;;;;1.98;1.00;;;12.20;32.70;;;;;;5053621;28;20113;-66
2022/04/02 10:27:32;;;;;;;3.97;1.15;;;12.10;33.50;;;;;;5056340;28;20043;-71
2022/04/02 10:30:03;;;;;;;2.03;0.98;;;14.30;31.40;;;;;;5057560;28;20077;-68
2022/04/02 10:33:26;;;;;;;3.42;1.45;;;15.40;29.70;;;;;;5053387;28;20119;-69
2022/04/02 10:35:46;;;;;;;2.15;1.13;;;15.40;28.90;;;;;;5054448;28;20040;-69
2022/04/02 10:38:20;;;;;;;3.70;1.00;;;15.20;29.20;;;;;;5054287;28;20040;-69
2022/04/02 10:40:50;;;;;;;1.98;1.00;;;14.80;29.50;;;;;;5052904;28;20035;-69
2022/04/02 10:43:33;;;;;;;2.70;1.10;;;14.30;29.70;;;;;;5057766;28;20036;-69
2022/04/02 10:46:01;;;;;;;1.85;1.10;;;13.90;30.30;;;;;;5054425;28;20072;-69
2022/04/02 10:48:40;;;;;;;1.52;1.10;;;13.80;30.40;;;;;;5055551;28;20032;-69
2022/04/02 10:51:08;;;;;;;1.92;1.17;;;13.90;30.30;;;;;;5048187;28;20089;-69
2022/04/02 10:53:41;;;;;;;9.60;4.38;;;15.10;29.70;;;;;;5057667;28;20119;-69
2022/04/02 10:56:15;;;;;;;3.15;1.33;;;16.50;28.40;;;;;;5055734;28;20039;-68
2022/04/02 10:58:50;;;;;;;3.72;1.60;;;18.80;26.30;;;;;;5054854;28;20115;-71
2022/04/02 11:01:22;;;;;;;2.60;1.10;;;20.30;25.00;;;;;;5052218;28;20040;-72
2022/04/02 11:03:58;;;;;;;2.80;1.30;;;21.60;23.70;;;;;;5059030;28;20036;-71
2022/04/02 11:06:46;;;;;;;4.80;1.90;;;20.20;24.40;;;;;;5055809;28;20141;-71
2022/04/02 11:09:33;;;;;;;4.95;1.02;;;19.00;25.40;;;;;;5056802;28;20043;-69
2022/04/02 11:12:03;;;;;;;;;;;18.10;26.00;;;;;;5056965;28;20060;-71
2022/04/02 11:14:40;;;;;;;2.10;1.00;;;17.10;26.40;;;;;;5055264;28;19911;-71
2022/04/02 11:17:06;;;;;;;2.03;1.05;;;15.90;27.60;;;;;;5054653;28;20488;-72
2022/04/02 11:19:56;;;;;;;3.95;0.90;;;15.00;28.40;;;;;;5057432;28;20032;-70
2022/04/02 11:22:28;;;;;;;2.72;1.35;;;14.10;29.20;;;;;;5056002;28;20102;-69
2022/04/02 11:25:03;;;;;;;2.53;0.90;;;13.80;29.90;;;;;;5054582;28;20032;-70
2022/04/02 11:27:32;;;;;;;1.50;0.90;;;13.60;29.70;;;;;;5057824;28;20400;-70
2022/04/02 11:30:10;;;;;;;4.82;0.98;;;13.40;30.40;;;;;;5054619;28;20040;-71
2022/04/02 11:32:45;;;;;;;1.52;1.10;;;13.60;30.10;;;;;;5057386;28;20334;-72
2022/04/02 11:35:22;;;;;;;1.30;0.90;;;13.50;29.60;;;;;;5057735;28;20041;-72
2022/04/02 11:38:09;;;;;;;2.63;1.10;;;13.60;30.00;;;;;;5030466;28;20087;-72
2022/04/02 11:40:43;;;;;;;3.45;1.48;;;13.90;30.00;;;;;;5056191;28;20143;-72
2022/04/02 11:43:09;;;;;;;3.70;1.00;;;14.00;30.00;;;;;;5059648;28;20469;-72
2022/04/02 11:45:36;;;;;;;2.15;1.30;;;13.70;30.00;;;;;;5056325;28;20044;-72
2022/04/02 11:48:14;;;;;;;3.47;1.90;;;13.60;31.50;;;;;;5056622;28;20135;-72
2022/04/02 11:50:44;;;;;;;6.10;2.40;;;14.00;30.70;;;;;;5060442;28;20067;-72
2022/04/02 11:53:12;;;;;;;2.40;1.55;;;14.00;30.60;;;;;;5060050;28;20056;-72
2022/04/02 11:55:40;;;;;;;4.97;1.10;;;14.00;31.50;;;;;;5056487;28;20039;-68
2022/04/02 11:58:11;;;;;;;2.63;1.17;;;13.60;31.60;;;;;;5059510;28;20040;-64
2022/04/02 12:00:42;;;;;;;2.65;1.42;;;13.40;31.70;;;;;;5057898;28;20041;-71
2022/04/02 12:03:29;;;;;;;2.97;1.00;;;13.00;32.80;;;;;;5059747;28;20037;-65
2022/04/02 12:05:54;;;;;;;2.20;1.00;;;12.70;32.50;;;;;;5055994;28;20065;-72
2022/04/02 12:08:32;;;;;;;2.78;1.17;;;12.70;33.30;;;;;;5057818;28;20220;-72
2022/04/02 12:10:59;;;;;;;3.05;1.10;;;12.60;34.10;;;;;;5056119;28;20060;-72
2022/04/02 12:13:26;;;;;;;3.47;1.00;;;12.50;34.20;;;;;;5059435;28;20033;-68
2022/04/02 12:16:08;;;;;;;2.58;1.25;;;12.20;35.20;;;;;;5058020;28;20039;-67
2022/04/02 12:18:53;;;;;;;1.27;0.73;;;11.70;35.60;;;;;;5057356;28;20029;-69
2022/04/02 12:21:37;;;;;;;3.83;1.20;;;11.30;36.70;;;;;;5059633;28;20622;-68
2022/04/02 12:24:04;;;;;;;4.90;0.93;;;11.10;38.40;;;;;;5056116;28;20028;-68
2022/04/02 12:26:31;;;;;;;6.60;1.20;;;11.10;38.70;;;;;;5058902;28;20032;-68
2022/04/02 12:28:59;;;;;;;4.22;0.90;;;11.40;38.20;;;;;;5059181;28;20647;-68
2022/04/02 12:31:27;;;;;;;2.55;0.65;;;11.90;37.70;;;;;;5061110;28;20075;-67
2022/04/02 12:33:54;;;;;;;3.58;1.10;;;12.10;37.40;;;;;;5056133;28;20048;-68
2022/04/02 12:36:32;;;;;;;1.42;1.10;;;12.20;36.30;;;;;;5061144;28;20035;-68
2022/04/02 12:39:08;;;;;;;2.88;1.20;;;12.40;36.80;;;;;;5059917;28;20086;-71
2022/04/02 12:41:49;;;;;;;5.63;2.08;;;12.60;36.40;;;;;;5059059;28;20522;-65
2022/04/02 12:44:19;;;;;;;1.67;1.13;;;12.70;36.70;;;;;;5060259;28;20066;-68
2022/04/02 12:46:47;;;;;;;1.42;1.00;;;12.70;36.70;;;;;;5062553;28;20039;-68
2022/04/02 12:49:33;;;;;;;2.67;1.27;;;12.50;37.10;;;;;;5062971;28;20037;-68
2022/04/02 12:52:13;;;;;;;;;;;12.10;37.90;;;;;;5056209;28;20032;-68
2022/04/02 12:54:50;;;;;;;2.45;1.20;;;11.60;38.30;;;;;;5056146;28;20395;-68
2022/04/02 12:57:17;;;;;;;2.67;1.00;;;10.90;40.10;;;;;;5056748;28;20832;-68
2022/04/02 12:59:50;;;;;;;2.45;1.05;;;10.40;42.00;;;;;;5060528;28;20032;-68
2022/04/02 13:02:20;;;;;;;1.20;0.90;;;9.90;41.40;;;;;;5057754;28;20083;-69
2022/04/02 13:04:54;;;;;;;2.05;0.70;;;9.70;41.90;;;;;;5059892;28;20065;-67
2022/04/02 13:07:21;;;;;;;1.58;0.73;;;9.60;42.20;;;;;;5061451;28;20037;-70
2022/04/02 13:09:51;;;;;;;3.78;1.13;;;9.50;42.50;;;;;;5058002;28;20036;-67
2022/04/02 13:12:24;;;;;;;1.30;1.08;;;9.20;42.60;;;;;;5058534;28;20844;-67
2022/04/02 13:15:05;;;;;;;3.67;1.27;;;9.20;43.40;;;;;;5061823;28;20773;-67
2022/04/02 13:20:38;;;;;;;2.35;1.25;;;9.70;44.00;;;;;;5055565;28;20479;-67
2022/04/02 13:23:08;;;;;;;1.10;0.95;;;10.10;42.50;;;;;;5059620;28;20111;-67
2022/04/02 13:25:47;;;;;;;2.35;0.90;;;10.40;42.50;;;;;;5048400;28;20059;-67